sensor_id;sensor_type;location;lat;lon;timestamp;temperature;humidity
24902;DHT22;31328;51.402;0.016;2024-02-14T00:01:17;12.00;99.90
24902;DHT22;31328;51.402;0.016;2024-02-14T00:03:44;12.00;99.90
24902;DHT22;31328;51.402;0.016;2024-02-14T00:06:11;12.00;99.90
24902;DHT22;31328;51.402;0.016;2024-02-14T00:08:39;12.00;99.90
24902;DHT22;31328;51.402;0.016;2024-02-14T00:11:05;12.00;99.90
24902;DHT22;31328;51.402;0.016;2024-02-14T00:13:32;12.10;99.90
24902;DHT22;31328;51.402;0.016;2024-02-14T00:16:02;12.10;99.90
24902;DHT22;31328;51.402;0.016;2024-02-14T00:18:28;12.10;99.90
24902;DHT22;31328;51.402;0.016;2024-02-14T00:20:55;12.10;99.90
24902;DHT22;31328;51.402;0.016;2024-02-14T00:23:21;12.10;99.90
24902;DHT22;31328;51.402;0.016;2024-02-14T00:25:48;12.10;99.90
24902;DHT22;31328;51.402;0.016;2024-02-14T00:28:14;12.10;99.90
24902;DHT22;31328;51.402;0.016;2024-02-14T00:30:40;12.10;99.90
24902;DHT22;31328;51.402;0.016;2024-02-14T00:33:29;12.10;99.90
24902;DHT22;31328;51.402;0.016;2024-02-14T00:35:56;12.10;99.90
24902;DHT22;31328;51.402;0.016;2024-02-14T00:38:22;12.10;99.90
24902;DHT22;31328;51.402;0.016;2024-02-14T00:40:48;12.10;99.90
24902;DHT22;31328;51.402;0.016;2024-02-14T00:43:15;12.10;99.90
24902;DHT22;31328;51.402;0.016;2024-02-14T00:45:41;12.10;99.90
24902;DHT22;31328;51.402;0.016;2024-02-14T00:48:08;12.10;99.90
24902;DHT22;31328;51.402;0.016;2024-02-14T00:50:34;12.20;99.90
24902;DHT22;31328;51.402;0.016;2024-02-14T00:53:00;12.20;99.90
24902;DHT22;31328;51.402;0.016;2024-02-14T00:55:27;12.20;99.90
24902;DHT22;31328;51.402;0.016;2024-02-14T00:57:53;12.20;99.90
24902;DHT22;31328;51.402;0.016;2024-02-14T01:00:20;12.30;99.90
24902;DHT22;31328;51.402;0.016;2024-02-14T01:02:46;12.30;99.90
24902;DHT22;31328;51.402;0.016;2024-02-14T01:05:13;12.30;99.90
24902;DHT22;31328;51.402;0.016;2024-02-14T01:07:39;12.30;99.90
24902;DHT22;31328;51.402;0.016;2024-02-14T01:10:06;12.30;99.90
24902;DHT22;31328;51.402;0.016;2024-02-14T01:12:34;12.30;99.90
24902;DHT22;31328;51.402;0.016;2024-02-14T01:15:00;12.30;99.90
24902;DHT22;31328;51.402;0.016;2024-02-14T01:17:27;12.30;99.90
24902;DHT22;31328;51.402;0.016;2024-02-14T01:19:54;12.30;99.90
24902;DHT22;31328;51.402;0.016;2024-02-14T01:22:20;12.30;99.90
24902;DHT22;31328;51.402;0.016;2024-02-14T01:25:01;12.30;99.90
24902;DHT22;31328;51.402;0.016;2024-02-14T01:27:28;12.30;99.90
24902;DHT22;31328;51.402;0.016;2024-02-14T01:29:55;12.30;99.90
24902;DHT22;31328;51.402;0.016;2024-02-14T01:32:23;12.30;99.90
24902;DHT22;31328;51.402;0.016;2024-02-14T01:34:50;12.30;99.90
24902;DHT22;31328;51.402;0.016;2024-02-14T01:37:16;12.40;99.90
24902;DHT22;31328;51.402;0.016;2024-02-14T01:39:43;12.40;99.90
24902;DHT22;31328;51.402;0.016;2024-02-14T01:42:09;12.30;99.90
24902;DHT22;31328;51.402;0.016;2024-02-14T01:44:35;12.30;99.90
24902;DHT22;31328;51.402;0.016;2024-02-14T01:47:03;12.30;99.90
24902;DHT22;31328;51.402;0.016;2024-02-14T01:49:30;12.30;99.90
24902;DHT22;31328;51.402;0.016;2024-02-14T01:52:02;12.30;99.90
24902;DHT22;31328;51.402;0.016;2024-02-14T01:54:30;12.30;99.90
24902;DHT22;31328;51.402;0.016;2024-02-14T01:56:57;12.30;99.90
24902;DHT22;31328;51.402;0.016;2024-02-14T01:59:27;12.20;99.90
24902;DHT22;31328;51.402;0.016;2024-02-14T02:01:54;12.20;99.90
24902;DHT22;31328;51.402;0.016;2024-02-14T02:04:20;12.20;99.90
24902;DHT22;31328;51.402;0.016;2024-02-14T02:06:47;12.20;99.90
24902;DHT22;31328;51.402;0.016;2024-02-14T02:09:13;12.20;99.90
24902;DHT22;31328;51.402;0.016;2024-02-14T02:11:50;12.20;99.90
24902;DHT22;31328;51.402;0.016;2024-02-14T02:14:37;12.10;99.90
24902;DHT22;31328;51.402;0.016;2024-02-14T02:17:26;12.20;99.90
24902;DHT22;31328;51.402;0.016;2024-02-14T02:20:12;12.10;99.90
24902;DHT22;31328;51.402;0.016;2024-02-14T02:22:44;12.20;99.90
24902;DHT22;31328;51.402;0.016;2024-02-14T02:25:30;12.20;99.90
24902;DHT22;31328;51.402;0.016;2024-02-14T02:28:04;12.20;99.90
24902;DHT22;31328;51.402;0.016;2024-02-14T02:30:35;12.20;99.90
24902;DHT22;31328;51.402;0.016;2024-02-14T02:33:02;12.20;99.90
24902;DHT22;31328;51.402;0.016;2024-02-14T02:35:29;12.20;99.90
24902;DHT22;31328;51.402;0.016;2024-02-14T02:38:18;12.20;99.90
24902;DHT22;31328;51.402;0.016;2024-02-14T02:41:06;12.20;99.90
24902;DHT22;31328;51.402;0.016;2024-02-14T02:43:52;12.30;99.90
24902;DHT22;31328;51.402;0.016;2024-02-14T02:46:49;12.30;99.90
24902;DHT22;31328;51.402;0.016;2024-02-14T02:49:35;12.30;99.90
24902;DHT22;31328;51.402;0.016;2024-02-14T02:52:23;12.30;99.90
24902;DHT22;31328;51.402;0.016;2024-02-14T02:55:09;12.40;99.90
24902;DHT22;31328;51.402;0.016;2024-02-14T02:57:42;12.40;99.90
24902;DHT22;31328;51.402;0.016;2024-02-14T03:00:10;12.40;99.90
24902;DHT22;31328;51.402;0.016;2024-02-14T03:02:47;12.40;99.90
24902;DHT22;31328;51.402;0.016;2024-02-14T03:05:22;12.50;99.90
24902;DHT22;31328;51.402;0.016;2024-02-14T03:08:12;12.50;99.90
24902;DHT22;31328;51.402;0.016;2024-02-14T03:11:04;12.50;99.90
24902;DHT22;31328;51.402;0.016;2024-02-14T03:13:51;12.50;99.90
24902;DHT22;31328;51.402;0.016;2024-02-14T03:16:37;12.50;99.90
24902;DHT22;31328;51.402;0.016;2024-02-14T03:19:05;12.50;99.90
24902;DHT22;31328;51.402;0.016;2024-02-14T03:21:31;12.60;99.90
24902;DHT22;31328;51.402;0.016;2024-02-14T03:24:02;12.60;99.90
24902;DHT22;31328;51.402;0.016;2024-02-14T03:26:31;12.60;99.90
24902;DHT22;31328;51.402;0.016;2024-02-14T03:29:02;12.60;99.90
24902;DHT22;31328;51.402;0.016;2024-02-14T03:31:28;12.60;99.90
24902;DHT22;31328;51.402;0.016;2024-02-14T03:33:54;12.60;99.90
24902;DHT22;31328;51.402;0.016;2024-02-14T03:36:21;12.60;99.90
24902;DHT22;31328;51.402;0.016;2024-02-14T03:38:47;12.60;99.90
24902;DHT22;31328;51.402;0.016;2024-02-14T03:41:13;12.60;99.90
24902;DHT22;31328;51.402;0.016;2024-02-14T03:43:40;12.70;99.90
24902;DHT22;31328;51.402;0.016;2024-02-14T03:46:06;12.60;99.90
24902;DHT22;31328;51.402;0.016;2024-02-14T03:48:32;12.60;99.90
24902;DHT22;31328;51.402;0.016;2024-02-14T03:50:59;12.60;99.90
24902;DHT22;31328;51.402;0.016;2024-02-14T03:53:26;12.60;99.90
24902;DHT22;31328;51.402;0.016;2024-02-14T03:55:52;12.70;99.90
24902;DHT22;31328;51.402;0.016;2024-02-14T03:58:19;12.60;99.90
24902;DHT22;31328;51.402;0.016;2024-02-14T04:00:52;12.60;99.90
24902;DHT22;31328;51.402;0.016;2024-02-14T04:03:19;12.60;99.90
24902;DHT22;31328;51.402;0.016;2024-02-14T04:05:45;12.60;99.90
24902;DHT22;31328;51.402;0.016;2024-02-14T04:08:13;12.60;99.90
24902;DHT22;31328;51.402;0.016;2024-02-14T04:10:40;12.60;99.90
24902;DHT22;31328;51.402;0.016;2024-02-14T04:13:06;12.60;99.90
24902;DHT22;31328;51.402;0.016;2024-02-14T04:15:33;12.60;99.90
24902;DHT22;31328;51.402;0.016;2024-02-14T04:18:05;12.60;99.90
24902;DHT22;31328;51.402;0.016;2024-02-14T04:20:32;12.50;99.90
24902;DHT22;31328;51.402;0.016;2024-02-14T04:22:58;12.50;99.90
24902;DHT22;31328;51.402;0.016;2024-02-14T04:25:25;12.50;99.90
24902;DHT22;31328;51.402;0.016;2024-02-14T04:27:51;12.50;99.90
24902;DHT22;31328;51.402;0.016;2024-02-14T04:30:18;12.50;99.90
24902;DHT22;31328;51.402;0.016;2024-02-14T04:33:03;12.50;99.90
24902;DHT22;31328;51.402;0.016;2024-02-14T04:35:30;12.50;99.90
24902;DHT22;31328;51.402;0.016;2024-02-14T04:37:57;12.50;99.90
24902;DHT22;31328;51.402;0.016;2024-02-14T04:40:23;12.50;99.90
24902;DHT22;31328;51.402;0.016;2024-02-14T04:42:50;12.60;99.90
24902;DHT22;31328;51.402;0.016;2024-02-14T04:45:16;12.60;99.90
24902;DHT22;31328;51.402;0.016;2024-02-14T04:47:53;12.60;99.90
24902;DHT22;31328;51.402;0.016;2024-02-14T04:50:19;12.60;99.90
24902;DHT22;31328;51.402;0.016;2024-02-14T04:52:46;12.60;99.90
24902;DHT22;31328;51.402;0.016;2024-02-14T04:55:12;12.60;99.90
24902;DHT22;31328;51.402;0.016;2024-02-14T04:57:38;12.60;99.90
24902;DHT22;31328;51.402;0.016;2024-02-14T05:00:05;12.60;99.90
24902;DHT22;31328;51.402;0.016;2024-02-14T05:02:35;12.60;99.90
24902;DHT22;31328;51.402;0.016;2024-02-14T05:05:03;12.60;99.90
24902;DHT22;31328;51.402;0.016;2024-02-14T05:07:32;12.60;99.90
24902;DHT22;31328;51.402;0.016;2024-02-14T05:10:00;12.60;99.90
24902;DHT22;31328;51.402;0.016;2024-02-14T05:12:26;12.60;99.90
24902;DHT22;31328;51.402;0.016;2024-02-14T05:14:53;12.60;99.90
24902;DHT22;31328;51.402;0.016;2024-02-14T05:17:20;12.60;99.90
24902;DHT22;31328;51.402;0.016;2024-02-14T05:19:46;12.60;99.90
24902;DHT22;31328;51.402;0.016;2024-02-14T05:22:12;12.60;99.90
24902;DHT22;31328;51.402;0.016;2024-02-14T05:24:39;12.60;99.90
24902;DHT22;31328;51.402;0.016;2024-02-14T05:27:06;12.60;99.90
24902;DHT22;31328;51.402;0.016;2024-02-14T05:29:32;12.60;99.90
24902;DHT22;31328;51.402;0.016;2024-02-14T05:31:59;12.60;99.90
24902;DHT22;31328;51.402;0.016;2024-02-14T05:34:25;12.60;99.90
24902;DHT22;31328;51.402;0.016;2024-02-14T05:36:51;12.60;99.90
24902;DHT22;31328;51.402;0.016;2024-02-14T05:39:18;12.50;99.90
24902;DHT22;31328;51.402;0.016;2024-02-14T05:41:45;12.50;99.90
24902;DHT22;31328;51.402;0.016;2024-02-14T05:44:11;12.50;99.90
24902;DHT22;31328;51.402;0.016;2024-02-14T05:46:38;12.50;99.90
24902;DHT22;31328;51.402;0.016;2024-02-14T05:49:04;12.50;99.90
24902;DHT22;31328;51.402;0.016;2024-02-14T05:51:30;12.50;99.90
24902;DHT22;31328;51.402;0.016;2024-02-14T05:53:57;12.50;99.90
24902;DHT22;31328;51.402;0.016;2024-02-14T05:56:24;12.50;99.90
24902;DHT22;31328;51.402;0.016;2024-02-14T05:58:50;12.50;99.90
24902;DHT22;31328;51.402;0.016;2024-02-14T06:01:17;12.50;99.90
24902;DHT22;31328;51.402;0.016;2024-02-14T06:03:43;12.50;99.90
24902;DHT22;31328;51.402;0.016;2024-02-14T06:06:09;12.40;99.90
24902;DHT22;31328;51.402;0.016;2024-02-14T06:08:36;12.40;99.90
24902;DHT22;31328;51.402;0.016;2024-02-14T06:11:02;12.40;99.90
24902;DHT22;31328;51.402;0.016;2024-02-14T06:13:29;12.40;99.90
24902;DHT22;31328;51.402;0.016;2024-02-14T06:15:55;12.40;99.90
24902;DHT22;31328;51.402;0.016;2024-02-14T06:18:22;12.40;99.90
24902;DHT22;31328;51.402;0.016;2024-02-14T06:20:48;12.40;99.90
24902;DHT22;31328;51.402;0.016;2024-02-14T06:23:15;12.40;99.90
24902;DHT22;31328;51.402;0.016;2024-02-14T06:25:42;12.40;99.90
24902;DHT22;31328;51.402;0.016;2024-02-14T06:28:11;12.40;99.90
24902;DHT22;31328;51.402;0.016;2024-02-14T06:30:37;12.40;99.90
24902;DHT22;31328;51.402;0.016;2024-02-14T06:33:04;12.40;99.90
24902;DHT22;31328;51.402;0.016;2024-02-14T06:35:30;12.40;99.90
24902;DHT22;31328;51.402;0.016;2024-02-14T06:37:57;12.40;99.90
24902;DHT22;31328;51.402;0.016;2024-02-14T06:40:23;12.40;99.90
24902;DHT22;31328;51.402;0.016;2024-02-14T06:42:50;12.40;99.90
24902;DHT22;31328;51.402;0.016;2024-02-14T06:45:17;12.40;99.90
24902;DHT22;31328;51.402;0.016;2024-02-14T06:47:50;12.40;99.90
24902;DHT22;31328;51.402;0.016;2024-02-14T06:50:17;12.40;99.90
24902;DHT22;31328;51.402;0.016;2024-02-14T06:52:43;12.40;99.90
24902;DHT22;31328;51.402;0.016;2024-02-14T06:55:09;12.40;99.90
24902;DHT22;31328;51.402;0.016;2024-02-14T06:57:36;12.40;99.90
24902;DHT22;31328;51.402;0.016;2024-02-14T07:00:03;12.40;99.90
24902;DHT22;31328;51.402;0.016;2024-02-14T07:02:36;12.40;99.90
24902;DHT22;31328;51.402;0.016;2024-02-14T07:05:02;12.40;99.90
24902;DHT22;31328;51.402;0.016;2024-02-14T07:07:30;12.40;99.90
24902;DHT22;31328;51.402;0.016;2024-02-14T07:09:56;12.40;99.90
24902;DHT22;31328;51.402;0.016;2024-02-14T07:12:22;12.50;99.90
24902;DHT22;31328;51.402;0.016;2024-02-14T07:14:49;12.50;99.90
24902;DHT22;31328;51.402;0.016;2024-02-14T07:17:16;12.50;99.90
24902;DHT22;31328;51.402;0.016;2024-02-14T07:19:42;12.40;99.90
24902;DHT22;31328;51.402;0.016;2024-02-14T07:22:13;12.40;99.90
24902;DHT22;31328;51.402;0.016;2024-02-14T07:24:42;12.40;99.90
24902;DHT22;31328;51.402;0.016;2024-02-14T07:27:08;12.50;99.90
24902;DHT22;31328;51.402;0.016;2024-02-14T07:29:35;12.50;99.90
24902;DHT22;31328;51.402;0.016;2024-02-14T07:32:02;12.50;99.90
24902;DHT22;31328;51.402;0.016;2024-02-14T07:34:29;12.50;99.90
24902;DHT22;31328;51.402;0.016;2024-02-14T07:36:55;12.50;99.90
24902;DHT22;31328;51.402;0.016;2024-02-14T07:39:21;12.50;99.90
24902;DHT22;31328;51.402;0.016;2024-02-14T07:41:48;12.50;99.90
24902;DHT22;31328;51.402;0.016;2024-02-14T07:44:14;12.50;99.90
24902;DHT22;31328;51.402;0.016;2024-02-14T07:46:40;12.50;99.90
24902;DHT22;31328;51.402;0.016;2024-02-14T07:49:07;12.50;99.90
24902;DHT22;31328;51.402;0.016;2024-02-14T07:51:34;12.50;99.90
24902;DHT22;31328;51.402;0.016;2024-02-14T07:54:03;12.60;99.90
24902;DHT22;31328;51.402;0.016;2024-02-14T07:56:30;12.50;99.90
24902;DHT22;31328;51.402;0.016;2024-02-14T07:58:57;12.60;99.90
24902;DHT22;31328;51.402;0.016;2024-02-14T08:01:24;12.60;99.90
24902;DHT22;31328;51.402;0.016;2024-02-14T08:03:51;12.50;99.90
24902;DHT22;31328;51.402;0.016;2024-02-14T08:06:17;12.50;99.90
24902;DHT22;31328;51.402;0.016;2024-02-14T08:08:44;12.50;99.90
24902;DHT22;31328;51.402;0.016;2024-02-14T08:11:10;12.50;99.90
24902;DHT22;31328;51.402;0.016;2024-02-14T08:13:36;12.60;99.90
24902;DHT22;31328;51.402;0.016;2024-02-14T08:16:06;12.60;99.90
24902;DHT22;31328;51.402;0.016;2024-02-14T08:18:33;12.60;99.90
24902;DHT22;31328;51.402;0.016;2024-02-14T08:20:59;12.60;99.90
24902;DHT22;31328;51.402;0.016;2024-02-14T08:23:25;12.60;99.90
24902;DHT22;31328;51.402;0.016;2024-02-14T08:25:52;12.70;99.90
24902;DHT22;31328;51.402;0.016;2024-02-14T08:28:18;12.70;99.90
24902;DHT22;31328;51.402;0.016;2024-02-14T08:30:46;12.70;99.90
24902;DHT22;31328;51.402;0.016;2024-02-14T08:33:13;12.70;99.90
24902;DHT22;31328;51.402;0.016;2024-02-14T08:35:40;12.70;99.90
24902;DHT22;31328;51.402;0.016;2024-02-14T08:38:06;12.80;99.90
24902;DHT22;31328;51.402;0.016;2024-02-14T08:40:34;12.80;99.90
24902;DHT22;31328;51.402;0.016;2024-02-14T08:43:00;12.80;99.90
24902;DHT22;31328;51.402;0.016;2024-02-14T08:45:27;12.80;99.90
24902;DHT22;31328;51.402;0.016;2024-02-14T08:47:56;12.80;99.90
24902;DHT22;31328;51.402;0.016;2024-02-14T08:50:22;12.90;99.90
24902;DHT22;31328;51.402;0.016;2024-02-14T08:52:49;12.90;99.90
24902;DHT22;31328;51.402;0.016;2024-02-14T08:55:15;12.90;99.90
24902;DHT22;31328;51.402;0.016;2024-02-14T08:57:43;12.90;99.90
24902;DHT22;31328;51.402;0.016;2024-02-14T09:00:11;12.90;99.90
24902;DHT22;31328;51.402;0.016;2024-02-14T09:02:41;12.90;99.90
24902;DHT22;31328;51.402;0.016;2024-02-14T09:05:07;12.90;99.90
24902;DHT22;31328;51.402;0.016;2024-02-14T09:07:35;13.00;99.90
24902;DHT22;31328;51.402;0.016;2024-02-14T09:10:02;13.00;99.90
24902;DHT22;31328;51.402;0.016;2024-02-14T09:12:30;13.00;99.90
24902;DHT22;31328;51.402;0.016;2024-02-14T09:14:56;13.00;99.90
24902;DHT22;31328;51.402;0.016;2024-02-14T09:17:23;13.00;99.90
24902;DHT22;31328;51.402;0.016;2024-02-14T09:19:49;13.00;99.90
24902;DHT22;31328;51.402;0.016;2024-02-14T09:22:17;13.10;99.90
24902;DHT22;31328;51.402;0.016;2024-02-14T09:24:48;13.10;99.90
24902;DHT22;31328;51.402;0.016;2024-02-14T09:27:14;13.10;99.90
24902;DHT22;31328;51.402;0.016;2024-02-14T09:29:41;13.10;99.90
24902;DHT22;31328;51.402;0.016;2024-02-14T09:32:07;13.10;99.90
24902;DHT22;31328;51.402;0.016;2024-02-14T09:34:34;13.10;99.90
24902;DHT22;31328;51.402;0.016;2024-02-14T09:37:01;13.10;99.90
24902;DHT22;31328;51.402;0.016;2024-02-14T09:39:27;13.10;99.90
24902;DHT22;31328;51.402;0.016;2024-02-14T09:41:58;13.20;99.90
24902;DHT22;31328;51.402;0.016;2024-02-14T09:44:28;13.10;99.90
24902;DHT22;31328;51.402;0.016;2024-02-14T09:46:58;13.10;99.90
24902;DHT22;31328;51.402;0.016;2024-02-14T09:49:26;13.10;99.90
24902;DHT22;31328;51.402;0.016;2024-02-14T09:51:53;13.10;99.90
24902;DHT22;31328;51.402;0.016;2024-02-14T09:54:22;13.10;99.90
24902;DHT22;31328;51.402;0.016;2024-02-14T09:56:50;13.10;99.90
24902;DHT22;31328;51.402;0.016;2024-02-14T09:59:20;13.10;99.90
24902;DHT22;31328;51.402;0.016;2024-02-14T10:01:47;13.10;99.90
24902;DHT22;31328;51.402;0.016;2024-02-14T10:04:18;13.10;99.90
24902;DHT22;31328;51.402;0.016;2024-02-14T10:06:45;13.10;99.90
24902;DHT22;31328;51.402;0.016;2024-02-14T10:09:12;13.10;99.90
24902;DHT22;31328;51.402;0.016;2024-02-14T10:11:39;13.10;99.90
24902;DHT22;31328;51.402;0.016;2024-02-14T10:14:06;13.10;99.90
24902;DHT22;31328;51.402;0.016;2024-02-14T10:16:35;13.10;99.90
24902;DHT22;31328;51.402;0.016;2024-02-14T10:19:02;13.10;99.90
24902;DHT22;31328;51.402;0.016;2024-02-14T10:21:29;13.10;99.90
24902;DHT22;31328;51.402;0.016;2024-02-14T10:24:00;13.10;99.90
24902;DHT22;31328;51.402;0.016;2024-02-14T10:26:28;13.10;99.90
24902;DHT22;31328;51.402;0.016;2024-02-14T10:28:56;13.10;99.90
24902;DHT22;31328;51.402;0.016;2024-02-14T10:31:26;13.10;99.90
24902;DHT22;31328;51.402;0.016;2024-02-14T10:33:56;12.90;99.90
24902;DHT22;31328;51.402;0.016;2024-02-14T10:36:23;13.20;99.90
24902;DHT22;31328;51.402;0.016;2024-02-14T10:38:50;13.10;99.90
24902;DHT22;31328;51.402;0.016;2024-02-14T10:41:17;13.10;99.90
24902;DHT22;31328;51.402;0.016;2024-02-14T10:43:43;13.10;99.90
24902;DHT22;31328;51.402;0.016;2024-02-14T10:46:22;13.10;99.90
24902;DHT22;31328;51.402;0.016;2024-02-14T10:48:58;13.10;99.90
24902;DHT22;31328;51.402;0.016;2024-02-14T10:51:31;13.00;99.90
24902;DHT22;31328;51.402;0.016;2024-02-14T10:54:00;13.00;99.90
24902;DHT22;31328;51.402;0.016;2024-02-14T10:56:28;13.00;99.90
24902;DHT22;31328;51.402;0.016;2024-02-14T10:58:57;13.00;99.90
24902;DHT22;31328;51.402;0.016;2024-02-14T11:01:27;13.00;99.90
24902;DHT22;31328;51.402;0.016;2024-02-14T11:03:58;13.00;99.90
24902;DHT22;31328;51.402;0.016;2024-02-14T11:06:25;13.10;99.90
24902;DHT22;31328;51.402;0.016;2024-02-14T11:09:02;13.10;99.90
24902;DHT22;31328;51.402;0.016;2024-02-14T11:11:33;13.10;99.90
24902;DHT22;31328;51.402;0.016;2024-02-14T11:14:00;13.20;99.90
24902;DHT22;31328;51.402;0.016;2024-02-14T11:16:27;13.10;99.90
24902;DHT22;31328;51.402;0.016;2024-02-14T11:19:09;13.20;99.90
24902;DHT22;31328;51.402;0.016;2024-02-14T11:21:43;13.20;99.90
24902;DHT22;31328;51.402;0.016;2024-02-14T11:24:14;13.30;99.90
24902;DHT22;31328;51.402;0.016;2024-02-14T11:26:51;13.30;99.90
24902;DHT22;31328;51.402;0.016;2024-02-14T11:29:18;13.30;99.90
24902;DHT22;31328;51.402;0.016;2024-02-14T11:31:45;13.40;99.90
24902;DHT22;31328;51.402;0.016;2024-02-14T11:34:12;13.40;99.90
24902;DHT22;31328;51.402;0.016;2024-02-14T11:36:44;13.40;99.90
24902;DHT22;31328;51.402;0.016;2024-02-14T11:39:11;13.50;99.90
24902;DHT22;31328;51.402;0.016;2024-02-14T11:41:38;13.50;99.90
24902;DHT22;31328;51.402;0.016;2024-02-14T11:44:05;13.50;99.90
24902;DHT22;31328;51.402;0.016;2024-02-14T11:46:32;13.50;99.90
24902;DHT22;31328;51.402;0.016;2024-02-14T11:49:00;13.60;99.90
24902;DHT22;31328;51.402;0.016;2024-02-14T11:51:30;13.60;99.90
24902;DHT22;31328;51.402;0.016;2024-02-14T11:53:58;13.60;99.90
24902;DHT22;31328;51.402;0.016;2024-02-14T11:56:37;13.60;99.90
24902;DHT22;31328;51.402;0.016;2024-02-14T11:59:06;13.70;99.90
24902;DHT22;31328;51.402;0.016;2024-02-14T12:01:37;13.70;99.90
24902;DHT22;31328;51.402;0.016;2024-02-14T12:04:09;13.70;99.90
24902;DHT22;31328;51.402;0.016;2024-02-14T12:06:38;13.70;99.90
24902;DHT22;31328;51.402;0.016;2024-02-14T12:09:07;13.70;99.90
24902;DHT22;31328;51.402;0.016;2024-02-14T12:11:36;13.70;99.90
24902;DHT22;31328;51.402;0.016;2024-02-14T12:14:09;13.80;99.90
24902;DHT22;31328;51.402;0.016;2024-02-14T12:16:36;13.90;99.90
24902;DHT22;31328;51.402;0.016;2024-02-14T12:19:14;14.00;99.90
24902;DHT22;31328;51.402;0.016;2024-02-14T12:21:42;14.00;99.90
24902;DHT22;31328;51.402;0.016;2024-02-14T12:24:12;13.90;99.90
24902;DHT22;31328;51.402;0.016;2024-02-14T12:26:42;14.00;99.90
24902;DHT22;31328;51.402;0.016;2024-02-14T12:29:11;14.00;99.90
24902;DHT22;31328;51.402;0.016;2024-02-14T12:31:39;14.00;99.90
24902;DHT22;31328;51.402;0.016;2024-02-14T12:34:05;14.10;99.90
24902;DHT22;31328;51.402;0.016;2024-02-14T12:36:33;14.10;99.90
24902;DHT22;31328;51.402;0.016;2024-02-14T12:39:00;14.10;99.90
24902;DHT22;31328;51.402;0.016;2024-02-14T12:41:31;14.20;99.90
24902;DHT22;31328;51.402;0.016;2024-02-14T12:43:58;14.20;99.90
24902;DHT22;31328;51.402;0.016;2024-02-14T12:46:26;14.20;99.90
24902;DHT22;31328;51.402;0.016;2024-02-14T12:48:54;14.30;99.90
24902;DHT22;31328;51.402;0.016;2024-02-14T12:51:20;14.30;99.90
24902;DHT22;31328;51.402;0.016;2024-02-14T12:53:47;14.30;99.90
24902;DHT22;31328;51.402;0.016;2024-02-14T12:56:14;14.40;99.90
24902;DHT22;31328;51.402;0.016;2024-02-14T12:58:40;14.40;99.90
24902;DHT22;31328;51.402;0.016;2024-02-14T13:01:07;14.40;99.90
24902;DHT22;31328;51.402;0.016;2024-02-14T13:03:37;14.40;99.90
24902;DHT22;31328;51.402;0.016;2024-02-14T13:06:04;14.40;99.90
24902;DHT22;31328;51.402;0.016;2024-02-14T13:08:31;14.40;99.90
24902;DHT22;31328;51.402;0.016;2024-02-14T13:10:58;14.30;99.90
24902;DHT22;31328;51.402;0.016;2024-02-14T13:13:24;14.40;99.90
24902;DHT22;31328;51.402;0.016;2024-02-14T13:15:51;14.30;99.90
24902;DHT22;31328;51.402;0.016;2024-02-14T13:18:17;14.30;99.90
24902;DHT22;31328;51.402;0.016;2024-02-14T13:20:44;14.30;99.90
24902;DHT22;31328;51.402;0.016;2024-02-14T13:23:11;14.30;99.90
24902;DHT22;31328;51.402;0.016;2024-02-14T13:25:37;14.30;99.90
24902;DHT22;31328;51.402;0.016;2024-02-14T13:28:04;14.30;99.90
24902;DHT22;31328;51.402;0.016;2024-02-14T13:30:31;14.30;99.90
24902;DHT22;31328;51.402;0.016;2024-02-14T13:32:59;14.30;99.90
24902;DHT22;31328;51.402;0.016;2024-02-14T13:35:25;14.30;99.90
24902;DHT22;31328;51.402;0.016;2024-02-14T13:37:51;14.30;99.90
24902;DHT22;31328;51.402;0.016;2024-02-14T13:40:18;14.30;99.90
24902;DHT22;31328;51.402;0.016;2024-02-14T13:42:44;14.30;99.90
24902;DHT22;31328;51.402;0.016;2024-02-14T13:45:11;14.30;99.90
24902;DHT22;31328;51.402;0.016;2024-02-14T13:47:38;14.30;99.90
24902;DHT22;31328;51.402;0.016;2024-02-14T13:50:12;14.30;99.90
24902;DHT22;31328;51.402;0.016;2024-02-14T13:52:38;14.30;99.90
24902;DHT22;31328;51.402;0.016;2024-02-14T13:55:05;14.30;99.90
24902;DHT22;31328;51.402;0.016;2024-02-14T13:57:37;14.30;99.90
24902;DHT22;31328;51.402;0.016;2024-02-14T14:00:06;14.40;99.90
24902;DHT22;31328;51.402;0.016;2024-02-14T14:02:38;14.40;99.90
24902;DHT22;31328;51.402;0.016;2024-02-14T14:05:08;14.40;99.90
24902;DHT22;31328;51.402;0.016;2024-02-14T14:07:36;14.40;99.90
24902;DHT22;31328;51.402;0.016;2024-02-14T14:10:04;14.40;99.90
24902;DHT22;31328;51.402;0.016;2024-02-14T14:12:31;14.40;99.90
24902;DHT22;31328;51.402;0.016;2024-02-14T14:14:58;14.40;99.90
24902;DHT22;31328;51.402;0.016;2024-02-14T14:17:24;14.40;99.90
24902;DHT22;31328;51.402;0.016;2024-02-14T14:19:53;14.40;99.90
24902;DHT22;31328;51.402;0.016;2024-02-14T14:22:20;14.40;99.90
24902;DHT22;31328;51.402;0.016;2024-02-14T14:24:47;14.50;99.90
24902;DHT22;31328;51.402;0.016;2024-02-14T14:27:13;14.50;99.90
24902;DHT22;31328;51.402;0.016;2024-02-14T14:29:41;14.50;99.90
24902;DHT22;31328;51.402;0.016;2024-02-14T14:32:08;14.40;99.90
24902;DHT22;31328;51.402;0.016;2024-02-14T14:34:34;14.40;99.90
24902;DHT22;31328;51.402;0.016;2024-02-14T14:37:00;14.40;99.90
24902;DHT22;31328;51.402;0.016;2024-02-14T14:39:27;14.40;99.90
24902;DHT22;31328;51.402;0.016;2024-02-14T14:41:53;14.40;99.90
24902;DHT22;31328;51.402;0.016;2024-02-14T14:44:24;14.40;99.90
24902;DHT22;31328;51.402;0.016;2024-02-14T14:46:51;14.30;99.90
24902;DHT22;31328;51.402;0.016;2024-02-14T14:49:18;14.30;99.90
24902;DHT22;31328;51.402;0.016;2024-02-14T14:51:44;14.30;99.90
24902;DHT22;31328;51.402;0.016;2024-02-14T14:54:10;14.30;99.90
24902;DHT22;31328;51.402;0.016;2024-02-14T14:56:37;14.30;99.90
24902;DHT22;31328;51.402;0.016;2024-02-14T14:59:03;14.20;99.90
24902;DHT22;31328;51.402;0.016;2024-02-14T15:01:30;14.20;99.90
24902;DHT22;31328;51.402;0.016;2024-02-14T15:03:57;14.20;99.90
24902;DHT22;31328;51.402;0.016;2024-02-14T15:06:24;14.20;99.90
24902;DHT22;31328;51.402;0.016;2024-02-14T15:08:50;14.20;99.90
24902;DHT22;31328;51.402;0.016;2024-02-14T15:11:16;14.30;99.90
24902;DHT22;31328;51.402;0.016;2024-02-14T15:13:44;14.20;99.90
24902;DHT22;31328;51.402;0.016;2024-02-14T15:16:12;14.20;99.90
24902;DHT22;31328;51.402;0.016;2024-02-14T15:18:40;14.20;99.90
24902;DHT22;31328;51.402;0.016;2024-02-14T15:21:10;14.20;99.90
24902;DHT22;31328;51.402;0.016;2024-02-14T15:23:36;14.20;99.90
24902;DHT22;31328;51.402;0.016;2024-02-14T15:26:03;14.10;99.90
24902;DHT22;31328;51.402;0.016;2024-02-14T15:28:30;14.10;99.90
24902;DHT22;31328;51.402;0.016;2024-02-14T15:30:57;14.10;99.90
24902;DHT22;31328;51.402;0.016;2024-02-14T15:33:42;14.10;99.90
24902;DHT22;31328;51.402;0.016;2024-02-14T15:36:09;14.10;99.90
24902;DHT22;31328;51.402;0.016;2024-02-14T15:38:37;14.00;99.90